Benton, TN (37307)

7:48 AM EST on December 21, 2014 (GMT -0500)
Chestuee | Change Station
CLOSE
Current Station
Personal Weather Station
Location: Cleveland, TN
Elevation: 755 ft
Nearby Weather Stations

Elev 755 ft 35.15 °N, 84.73 °W | Updated 4 minutes ago

Overcast
Overcast
33.3 °F
Feels Like 33 °F
N
0.0
Wind Variable Wind from East

Today
High -- | Low -- °F
--% Chance of Precip.
Yesterday
High -- | Low -- °F
Precip. -- in
7:43 AM 5:30 PM
Waning Crescent, 0% visible
Pressure 30.23 in
Visibility 7.0 miles
Clouds Overcast 3600 ft
Windchill 33 °F
Dew Point 32 °F
Humidity 95%
Rainfall 0.00 in
Snow Depth Not available.
UV 0 out of 12
Pollen .10 out of 12
Air Quality Not available.
Flu Activity Not available.
METAR KRZR 211235Z AUTO 00000KT 7SM OVC036 01/00 A3023 RMK

More Conditions Fewer Conditions

Pressure 30.23 in
Visibility 7.0 miles
Clouds Overcast 3600 ft
Windchill 33 °F
Dew Point 32 °F
Humidity 95%
Rainfall 0.00 in
Snow Depth Not available.
UV 0 out of 12
Pollen .10 out of 12
Air Quality Not available.
Flu Activity Not available.
METAR KRZR 211235Z AUTO 00000KT 7SM OVC036 01/00 A3023 RMK

More Conditions Fewer Conditions

10-Day Weather Forecast

Almanac

Astronomy

Dec. 21, 2014 Rise Set
Actual Time
Civil Twilight
Nautical Twilight
Astronomical Twilight
Moon
Length of Visible Light
Length of Day
Tomorrow will be .
, % of the Moon is Illuminated

Today's Extremes

State Highs State Lows

Community

WunderPhotos

Upload Photos

1,779,372 photos uploaded!

WunderBlogs® & News

Nearby

Air Quality

  Air Quality AQ Index Pollutant
Not available.

Snow Depth

Station Depth Elevation

Earthquake Activity

City Distance Mag. Time & Date
Minimum magnitude displayed is 2.5.

Coastal Water Temperatures

Place Temperature

Nearby Weather Stations